createdAt,value
2023-05-18T00:02:10.793Z,18.52
2023-05-18T00:04:38.842Z,18.50
2023-05-18T00:07:07.028Z,18.50
2023-05-18T00:09:36.925Z,18.50
2023-05-18T00:12:05.571Z,18.50
2023-05-18T00:14:33.430Z,18.49
2023-05-18T00:17:03.790Z,18.49
2023-05-18T00:19:31.583Z,18.49
2023-05-18T00:21:59.124Z,18.49
2023-05-18T00:24:26.665Z,18.48
2023-05-18T00:26:53.955Z,18.48
2023-05-18T00:29:21.949Z,18.48
2023-05-18T00:31:49.464Z,18.47
2023-05-18T00:34:17.128Z,18.47
2023-05-18T00:36:45.039Z,18.47
2023-05-18T00:39:12.665Z,18.46
2023-05-18T00:41:40.071Z,18.46
2023-05-18T00:44:07.668Z,18.45
2023-05-18T00:46:35.156Z,18.45
2023-05-18T00:49:03.006Z,18.44
2023-05-18T00:51:32.555Z,18.44
2023-05-18T00:54:03.516Z,18.43
2023-05-18T00:56:34.172Z,18.44
2023-05-18T00:59:03.438Z,18.44
2023-05-18T01:01:36.379Z,18.43
2023-05-18T01:04:04.705Z,18.44
2023-05-18T01:06:35.550Z,18.43
2023-05-18T01:09:06.839Z,18.42
2023-05-18T01:11:59.956Z,18.42
2023-05-18T01:14:49.776Z,18.41
2023-05-18T01:17:40.542Z,18.41
2023-05-18T01:20:22.453Z,18.41
2023-05-18T01:23:06.163Z,18.40
2023-05-18T01:25:50.803Z,18.41
2023-05-18T01:28:28.432Z,18.40
2023-05-18T01:30:57.429Z,18.39
2023-05-18T01:33:25.623Z,18.39
2023-05-18T01:35:53.475Z,18.39
2023-05-18T01:38:23.760Z,18.39
2023-05-18T01:40:54.356Z,18.39
2023-05-18T01:43:28.182Z,18.39
2023-05-18T01:46:01.969Z,18.38
2023-05-18T01:48:29.660Z,18.38
2023-05-18T01:50:59.599Z,18.38
2023-05-18T01:53:46.594Z,18.38
2023-05-18T01:56:14.794Z,18.36
2023-05-18T01:58:42.133Z,18.37
2023-05-18T02:01:09.891Z,18.37
2023-05-18T02:03:37.229Z,18.36
2023-05-18T02:06:04.879Z,18.36
2023-05-18T02:08:32.304Z,18.36
2023-05-18T02:10:59.853Z,18.35
2023-05-18T02:13:27.319Z,18.35
2023-05-18T02:16:58.313Z,18.35
2023-05-18T02:19:26.123Z,18.34
2023-05-18T02:21:53.777Z,18.33
2023-05-18T02:24:23.070Z,18.32
2023-05-18T02:26:51.501Z,18.33
2023-05-18T02:29:18.785Z,18.33
2023-05-18T02:31:46.344Z,18.31
2023-05-18T02:34:15.404Z,18.32
2023-05-18T02:36:43.463Z,18.31
2023-05-18T02:39:11.018Z,18.32
2023-05-18T02:41:38.851Z,18.31
2023-05-18T02:44:06.301Z,18.30
2023-05-18T02:46:33.905Z,18.31
2023-05-18T02:49:01.830Z,18.29
2023-05-18T02:51:30.349Z,18.30
2023-05-18T02:53:57.698Z,18.28
2023-05-18T02:56:25.279Z,18.28
2023-05-18T02:58:57.795Z,18.28
2023-05-18T03:01:28.698Z,18.28
2023-05-18T03:03:59.333Z,18.28
2023-05-18T03:06:27.196Z,18.27
2023-05-18T03:08:55.185Z,18.27
2023-05-18T03:11:23.885Z,18.27
2023-05-18T03:13:51.212Z,18.26
2023-05-18T03:16:18.846Z,18.26
2023-05-18T03:18:46.868Z,18.26
2023-05-18T03:21:14.419Z,18.26
2023-05-18T03:23:41.677Z,18.26
2023-05-18T03:26:11.352Z,18.26
2023-05-18T03:28:39.328Z,18.26
2023-05-18T03:31:06.987Z,18.26
2023-05-18T03:33:34.446Z,18.26
2023-05-18T03:36:04.595Z,18.26
2023-05-18T03:38:32.112Z,18.25
2023-05-18T03:40:59.708Z,18.27
2023-05-18T03:43:29.536Z,18.26
2023-05-18T03:45:57.129Z,18.25
2023-05-18T03:48:24.990Z,18.26
2023-05-18T03:50:52.603Z,18.25
2023-05-18T03:53:21.441Z,18.26
2023-05-18T03:55:49.544Z,18.25
2023-05-18T03:58:17.022Z,18.24
2023-05-18T04:00:44.512Z,18.25
2023-05-18T04:03:12.768Z,18.23
2023-05-18T04:05:43.532Z,18.24
2023-05-18T04:08:14.266Z,18.24
2023-05-18T04:10:43.332Z,18.23
2023-05-18T04:13:11.453Z,18.24
2023-05-18T04:15:39.276Z,18.24
2023-05-18T04:18:06.614Z,18.24
2023-05-18T04:20:34.294Z,18.24
2023-05-18T04:23:01.563Z,18.23
2023-05-18T04:25:29.374Z,18.24
2023-05-18T04:27:57.812Z,18.23
2023-05-18T04:30:29.551Z,18.24
2023-05-18T04:32:58.432Z,18.23
2023-05-18T04:35:26.848Z,18.23
2023-05-18T04:37:54.713Z,18.24
2023-05-18T04:40:22.484Z,18.28
2023-05-18T04:42:49.876Z,18.27
2023-05-18T04:45:19.310Z,18.25
2023-05-18T04:47:48.526Z,18.20
2023-05-18T04:50:17.282Z,18.16
2023-05-18T04:52:49.076Z,18.12
2023-05-18T04:55:31.382Z,18.07
2023-05-18T04:58:00.662Z,18.03
2023-05-18T05:00:30.076Z,18.01
2023-05-18T05:02:58.505Z,17.98
2023-05-18T05:05:27.101Z,17.93
2023-05-18T05:07:55.807Z,17.93
2023-05-18T05:10:24.004Z,17.89
2023-05-18T05:12:51.590Z,17.87
2023-05-18T05:15:20.111Z,17.84
2023-05-18T05:17:48.253Z,17.86
2023-05-18T05:20:16.775Z,17.85
2023-05-18T05:22:44.196Z,17.86
2023-05-18T05:25:12.167Z,17.87
2023-05-18T05:27:39.493Z,17.88
2023-05-18T05:30:07.909Z,17.90
2023-05-18T05:32:36.310Z,17.91
2023-05-18T05:35:04.530Z,17.92
2023-05-18T05:37:31.816Z,17.92
2023-05-18T05:39:59.510Z,17.92
2023-05-18T05:42:27.106Z,17.94
2023-05-18T05:44:54.658Z,17.94
2023-05-18T05:47:21.989Z,17.95
2023-05-18T05:49:49.690Z,17.95
2023-05-18T05:52:16.971Z,17.95
2023-05-18T05:54:44.592Z,17.95
2023-05-18T05:57:11.886Z,17.95
2023-05-18T05:59:39.428Z,17.96
2023-05-18T06:02:06.997Z,17.96
2023-05-18T06:04:34.764Z,17.98
2023-05-18T06:07:02.087Z,17.97
2023-05-18T06:09:29.705Z,17.98
2023-05-18T06:11:57.464Z,17.98
2023-05-18T06:14:25.081Z,17.98
2023-05-18T06:16:52.650Z,17.98
2023-05-18T06:19:20.398Z,17.99
2023-05-18T06:21:47.926Z,17.99
2023-05-18T06:24:15.988Z,17.99
2023-05-18T06:26:43.474Z,18.00
2023-05-18T06:29:11.131Z,18.00
2023-05-18T06:31:38.611Z,18.00
2023-05-18T06:34:06.243Z,18.00
2023-05-18T06:36:34.342Z,18.02
2023-05-18T06:39:01.931Z,18.01
2023-05-18T06:41:29.282Z,18.02
2023-05-18T06:44:00.266Z,18.04
2023-05-18T06:46:28.415Z,18.04
2023-05-18T06:48:56.607Z,18.04
2023-05-18T06:51:24.189Z,18.05
2023-05-18T06:53:51.766Z,18.04
2023-05-18T06:56:19.398Z,18.06
2023-05-18T06:58:46.983Z,18.05
2023-05-18T07:01:14.742Z,18.05
2023-05-18T07:03:42.550Z,18.06
2023-05-18T07:06:10.068Z,18.06
2023-05-18T07:08:37.637Z,18.08
2023-05-18T07:11:05.379Z,18.08
2023-05-18T07:13:33.022Z,18.08
2023-05-18T07:16:00.439Z,18.09
2023-05-18T07:18:28.134Z,18.08
2023-05-18T07:20:55.440Z,18.09
2023-05-18T07:23:23.418Z,18.10
2023-05-18T07:25:51.012Z,18.11
2023-05-18T07:28:18.546Z,18.11
2023-05-18T07:30:45.900Z,18.12
2023-05-18T07:33:13.536Z,18.11
2023-05-18T07:35:41.098Z,18.11
2023-05-18T07:38:08.705Z,18.12
2023-05-18T07:40:36.121Z,18.12
2023-05-18T07:43:03.765Z,18.12
2023-05-18T07:45:31.843Z,18.12
2023-05-18T07:48:00.368Z,18.12
2023-05-18T07:50:29.477Z,18.14
2023-05-18T07:52:57.082Z,18.13
2023-05-18T07:55:24.449Z,18.14
2023-05-18T07:57:52.715Z,18.14
2023-05-18T08:00:20.506Z,18.12
2023-05-18T08:02:48.584Z,18.14
2023-05-18T08:05:16.695Z,18.14
2023-05-18T08:07:44.383Z,18.14
2023-05-18T08:10:11.743Z,18.15
2023-05-18T08:12:39.394Z,18.13
2023-05-18T08:15:07.880Z,18.15
2023-05-18T08:17:35.946Z,18.15
2023-05-18T08:20:04.957Z,18.15
2023-05-18T08:22:32.544Z,18.15
2023-05-18T08:25:01.369Z,18.15
2023-05-18T08:27:29.260Z,18.16
2023-05-18T08:29:56.669Z,18.16
2023-05-18T08:32:24.336Z,18.15
2023-05-18T08:34:51.835Z,18.15
2023-05-18T08:37:19.441Z,18.15
2023-05-18T08:39:46.752Z,18.16
2023-05-18T08:42:25.992Z,18.15
2023-05-18T08:45:15.920Z,18.15
2023-05-18T08:47:44.705Z,18.15
2023-05-18T08:50:15.912Z,18.17
2023-05-18T08:52:48.517Z,18.16
2023-05-18T08:55:17.784Z,18.16
2023-05-18T08:57:55.603Z,18.17
2023-05-18T09:00:24.662Z,18.17
2023-05-18T09:02:53.244Z,18.18
2023-05-18T09:05:21.898Z,18.18
2023-05-18T09:07:54.885Z,18.19
2023-05-18T09:10:24.165Z,18.18
2023-05-18T09:12:52.758Z,18.19
2023-05-18T09:15:20.328Z,18.19
2023-05-18T09:17:48.032Z,18.19
2023-05-18T09:20:16.973Z,18.19
2023-05-18T09:22:44.842Z,18.20
2023-05-18T09:25:12.251Z,18.21
2023-05-18T09:27:40.386Z,18.20
2023-05-18T09:30:11.487Z,18.21
2023-05-18T09:32:39.720Z,18.20
2023-05-18T09:35:08.637Z,18.21
2023-05-18T09:37:36.544Z,18.22
2023-05-18T09:40:06.671Z,18.23
2023-05-18T09:42:43.405Z,18.22
2023-05-18T09:45:25.637Z,18.23
2023-05-18T09:47:53.815Z,18.23
2023-05-18T09:50:22.662Z,18.23
2023-05-18T09:52:50.663Z,18.23
2023-05-18T09:55:19.943Z,18.23
2023-05-18T09:57:49.720Z,18.23
2023-05-18T10:00:19.732Z,18.24
2023-05-18T10:02:52.304Z,18.23
2023-05-18T10:05:36.104Z,18.22
2023-05-18T10:08:03.977Z,18.22
2023-05-18T10:10:31.526Z,18.24
2023-05-18T10:12:59.628Z,18.22
2023-05-18T10:15:26.954Z,18.24
2023-05-18T10:17:59.906Z,18.24
2023-05-18T10:20:27.605Z,18.22
2023-05-18T10:22:57.339Z,18.24
2023-05-18T10:25:26.976Z,18.23
2023-05-18T10:27:57.709Z,18.23
2023-05-18T10:30:26.714Z,18.23
2023-05-18T10:32:57.027Z,18.23
2023-05-18T10:35:28.253Z,18.23
2023-05-18T10:37:57.699Z,18.23
2023-05-18T10:40:27.017Z,18.23
2023-05-18T10:42:57.353Z,18.23
2023-05-18T10:45:26.419Z,18.23
2023-05-18T10:47:55.777Z,18.23
2023-05-18T10:50:23.708Z,18.22
2023-05-18T10:52:53.084Z,18.21
2023-05-18T10:55:20.865Z,18.23
2023-05-18T10:57:54.098Z,18.23
2023-05-18T11:00:21.646Z,18.22
2023-05-18T11:02:51.083Z,18.23
2023-05-18T11:05:26.649Z,18.24
2023-05-18T11:08:05.894Z,18.24
2023-05-18T11:10:42.369Z,18.23
2023-05-18T11:13:13.468Z,18.23
2023-05-18T11:15:53.159Z,18.24
2023-05-18T11:18:41.295Z,18.25
2023-05-18T11:21:29.456Z,18.26
2023-05-18T11:24:30.634Z,18.25
2023-05-18T11:27:12.052Z,18.25
2023-05-18T11:29:51.921Z,18.25
2023-05-18T11:32:29.237Z,18.25
2023-05-18T11:34:59.493Z,18.25
2023-05-18T11:37:39.574Z,18.25
2023-05-18T11:40:12.102Z,18.25
2023-05-18T11:42:39.660Z,18.24
2023-05-18T11:45:08.146Z,18.25
2023-05-18T11:47:42.356Z,18.24
2023-05-18T11:50:13.907Z,18.23
2023-05-18T11:52:49.026Z,18.25
2023-05-18T11:55:19.276Z,18.24
2023-05-18T11:57:53.150Z,18.24
2023-05-18T12:00:21.394Z,18.24
2023-05-18T12:02:49.172Z,18.23
2023-05-18T12:05:17.385Z,18.23
2023-05-18T12:07:51.955Z,18.23
2023-05-18T12:10:21.760Z,18.23
2023-05-18T12:12:52.927Z,18.23
2023-05-18T12:15:24.985Z,18.23
2023-05-18T12:17:52.638Z,18.22
2023-05-18T12:20:25.292Z,18.22
2023-05-18T12:22:54.167Z,18.22
2023-05-18T12:25:24.074Z,18.22
2023-05-18T12:27:52.859Z,18.22
2023-05-18T12:30:22.587Z,18.22
2023-05-18T12:32:55.406Z,18.22
2023-05-18T12:35:28.396Z,18.22
2023-05-18T12:38:00.746Z,18.23
2023-05-18T12:40:37.723Z,18.22
2023-05-18T12:43:05.140Z,18.23
2023-05-18T12:45:34.235Z,18.22
2023-05-18T12:48:09.410Z,18.22
2023-05-18T12:50:46.317Z,18.22
2023-05-18T12:53:13.705Z,18.23
2023-05-18T12:55:41.590Z,18.23
2023-05-18T12:58:19.931Z,18.22
2023-05-18T13:00:48.576Z,18.22
2023-05-18T13:03:18.574Z,18.22
2023-05-18T13:06:03.276Z,18.22
2023-05-18T13:08:31.924Z,18.21
2023-05-18T13:11:14.102Z,18.22
2023-05-18T13:14:01.967Z,18.22
2023-05-18T13:16:30.538Z,18.20
2023-05-18T13:19:04.511Z,18.21
2023-05-18T13:21:34.239Z,18.20
2023-05-18T13:24:03.168Z,18.22
2023-05-18T13:26:31.198Z,18.21
2023-05-18T13:29:00.267Z,18.21
2023-05-18T13:31:29.641Z,18.21
2023-05-18T13:33:57.361Z,18.21
2023-05-18T13:36:26.030Z,18.21
2023-05-18T13:38:54.118Z,18.21
2023-05-18T13:41:21.691Z,18.21
2023-05-18T13:43:49.135Z,18.20
2023-05-18T13:46:18.618Z,18.21
2023-05-18T13:48:47.017Z,18.21
2023-05-18T13:51:14.658Z,18.22
2023-05-18T13:53:42.028Z,18.22
2023-05-18T13:56:09.570Z,18.22
2023-05-18T13:58:37.185Z,18.22
2023-05-18T14:01:08.067Z,18.23
2023-05-18T14:03:36.546Z,18.23
2023-05-18T14:06:04.444Z,18.23
2023-05-18T14:08:31.789Z,18.22
2023-05-18T14:10:59.377Z,18.24
2023-05-18T14:13:26.655Z,18.24
2023-05-18T14:15:54.226Z,18.24
2023-05-18T14:18:21.522Z,18.24
2023-05-18T14:20:49.148Z,18.24
2023-05-18T14:23:16.692Z,18.24
2023-05-18T14:25:45.868Z,18.24
2023-05-18T14:28:13.550Z,18.24
2023-05-18T14:30:41.372Z,18.23
2023-05-18T14:33:08.899Z,18.24
2023-05-18T14:35:36.476Z,18.24
2023-05-18T14:38:03.857Z,18.24
2023-05-18T14:40:31.958Z,18.24
2023-05-18T14:42:59.424Z,18.25
2023-05-18T14:45:27.034Z,18.26
2023-05-18T14:47:54.709Z,18.26
2023-05-18T14:50:23.412Z,18.27
2023-05-18T14:52:52.134Z,18.27
2023-05-18T14:55:20.065Z,18.26
2023-05-18T14:57:47.693Z,18.25
2023-05-18T15:00:15.551Z,18.25
2023-05-18T15:02:43.012Z,18.24
2023-05-18T15:05:11.356Z,18.24
2023-05-18T15:07:38.788Z,18.24
2023-05-18T15:10:07.099Z,18.24
2023-05-18T15:12:34.369Z,18.25
2023-05-18T15:15:02.014Z,18.25
2023-05-18T15:17:29.299Z,18.25
2023-05-18T15:19:56.910Z,18.27
2023-05-18T15:22:24.284Z,18.27
2023-05-18T15:24:51.848Z,18.27
2023-05-18T15:27:19.162Z,18.27
2023-05-18T15:29:48.381Z,18.27
2023-05-18T15:32:16.325Z,18.26
2023-05-18T15:34:43.959Z,18.27
2023-05-18T15:37:11.311Z,18.26
2023-05-18T15:39:38.922Z,18.27
2023-05-18T15:42:06.551Z,18.26
2023-05-18T15:44:34.158Z,18.25
2023-05-18T15:47:07.420Z,18.25
2023-05-18T15:49:35.064Z,18.24
2023-05-18T15:52:02.384Z,18.21
2023-05-18T15:54:30.405Z,18.19
2023-05-18T15:56:57.805Z,18.15
2023-05-18T15:59:25.580Z,18.11
2023-05-18T16:01:53.084Z,18.08
2023-05-18T16:04:20.762Z,18.05
2023-05-18T16:06:48.068Z,18.00
2023-05-18T16:09:17.023Z,17.98
2023-05-18T16:11:44.290Z,17.96
2023-05-18T16:14:11.923Z,17.95
2023-05-18T16:16:39.638Z,17.91
2023-05-18T16:19:07.464Z,17.88
2023-05-18T16:21:34.843Z,17.87
2023-05-18T16:24:02.477Z,17.83
2023-05-18T16:26:29.814Z,17.82
2023-05-18T16:28:57.354Z,17.80
2023-05-18T16:31:24.794Z,17.76
2023-05-18T16:33:52.911Z,17.73
2023-05-18T16:36:20.328Z,17.70
2023-05-18T16:38:47.902Z,17.68
2023-05-18T16:41:16.493Z,17.65
2023-05-18T16:43:44.049Z,17.63
2023-05-18T16:46:12.067Z,17.65
2023-05-18T16:48:39.684Z,17.67
2023-05-18T16:51:07.166Z,17.71
2023-05-18T16:53:34.793Z,17.73
2023-05-18T16:56:03.452Z,17.75
2023-05-18T16:58:31.189Z,17.77
2023-05-18T17:00:58.654Z,17.77
2023-05-18T17:03:27.541Z,17.79
2023-05-18T17:05:55.084Z,17.80
2023-05-18T17:08:23.493Z,17.81
2023-05-18T17:10:50.797Z,17.81
2023-05-18T17:13:18.832Z,17.82
2023-05-18T17:15:46.333Z,17.81
2023-05-18T17:18:16.226Z,17.83
2023-05-18T17:20:43.592Z,17.84
2023-05-18T17:23:17.313Z,17.84
2023-05-18T17:25:46.055Z,17.83
2023-05-18T17:28:13.902Z,17.85
2023-05-18T17:30:41.250Z,17.84
2023-05-18T17:33:09.064Z,17.84
2023-05-18T17:35:36.392Z,17.85
2023-05-18T17:38:03.951Z,17.85
2023-05-18T17:40:31.517Z,17.84
2023-05-18T17:42:59.261Z,17.85
2023-05-18T17:45:26.589Z,17.85
2023-05-18T17:47:54.552Z,17.84
2023-05-18T17:50:23.095Z,17.85
2023-05-18T17:52:50.612Z,17.85
2023-05-18T17:55:18.061Z,17.86
2023-05-18T17:57:46.633Z,17.84
2023-05-18T18:00:14.693Z,17.85
2023-05-18T18:02:42.498Z,17.85
2023-05-18T18:05:10.158Z,17.85
2023-05-18T18:07:37.766Z,17.85
2023-05-18T18:10:06.751Z,17.84
2023-05-18T18:12:34.386Z,17.85
2023-05-18T18:15:01.770Z,17.85
2023-05-18T18:17:29.495Z,17.85
2023-05-18T18:19:56.932Z,17.85
2023-05-18T18:22:24.514Z,17.84
2023-05-18T18:24:51.958Z,17.84
2023-05-18T18:27:19.981Z,17.84
2023-05-18T18:29:49.012Z,17.84
2023-05-18T18:32:16.741Z,17.85
2023-05-18T18:34:44.136Z,17.84
2023-05-18T18:37:11.880Z,17.85
2023-05-18T18:39:39.655Z,17.84
2023-05-18T18:42:07.344Z,17.84
2023-05-18T18:44:34.690Z,17.84
2023-05-18T18:47:02.720Z,17.84
2023-05-18T18:49:30.643Z,17.84
2023-05-18T18:51:58.950Z,17.84
2023-05-18T18:54:27.089Z,17.83
2023-05-18T18:56:54.675Z,17.83
2023-05-18T18:59:22.008Z,17.83
2023-05-18T19:01:49.668Z,17.82
2023-05-18T19:04:18.472Z,17.83
2023-05-18T19:06:48.326Z,17.83
2023-05-18T19:09:15.731Z,17.81
2023-05-18T19:11:43.233Z,17.82
2023-05-18T19:14:10.679Z,17.81
2023-05-18T19:16:38.378Z,17.81
2023-05-18T19:19:08.753Z,17.81
2023-05-18T19:21:36.642Z,17.82
2023-05-18T19:24:05.037Z,17.81
2023-05-18T19:26:33.417Z,17.82
2023-05-18T19:29:01.031Z,17.82
2023-05-18T19:31:31.592Z,17.81
2023-05-18T19:34:01.796Z,17.82
2023-05-18T19:36:29.342Z,17.81
2023-05-18T19:38:56.777Z,17.82
2023-05-18T19:41:24.834Z,17.81
2023-05-18T19:43:52.270Z,17.80
2023-05-18T19:46:19.893Z,17.80
2023-05-18T19:48:48.036Z,17.80
2023-05-18T19:51:16.160Z,17.80
2023-05-18T19:53:44.644Z,17.80
2023-05-18T19:56:12.377Z,17.80
2023-05-18T19:58:39.845Z,17.78
2023-05-18T20:01:07.412Z,17.78
2023-05-18T20:03:34.792Z,17.79
2023-05-18T20:06:03.596Z,17.77
2023-05-18T20:08:30.874Z,17.78
2023-05-18T20:10:58.741Z,17.77
2023-05-18T20:13:26.258Z,17.77
2023-05-18T20:15:53.864Z,17.77
2023-05-18T20:18:21.751Z,17.77
2023-05-18T20:20:49.897Z,17.77
2023-05-18T20:23:18.283Z,17.77
2023-05-18T20:25:48.042Z,17.76
2023-05-18T20:28:16.134Z,17.77
2023-05-18T20:30:43.720Z,17.77
2023-05-18T20:33:12.590Z,17.77
2023-05-18T20:35:40.241Z,17.75
2023-05-18T20:38:07.735Z,17.75
2023-05-18T20:40:37.807Z,17.75
2023-05-18T20:43:06.113Z,17.75
2023-05-18T20:45:33.633Z,17.75
2023-05-18T20:48:00.940Z,17.74
2023-05-18T20:50:28.481Z,17.74
2023-05-18T20:52:55.818Z,17.74
2023-05-18T20:55:24.016Z,17.74
2023-05-18T20:57:51.401Z,17.75
2023-05-18T21:00:19.882Z,17.74
2023-05-18T21:02:48.481Z,17.75
2023-05-18T21:05:16.570Z,17.74
2023-05-18T21:07:44.099Z,17.73
2023-05-18T21:10:11.940Z,17.72
2023-05-18T21:12:39.353Z,17.73
2023-05-18T21:15:07.488Z,17.73
2023-05-18T21:17:34.813Z,17.72
2023-05-18T21:20:02.457Z,17.72
2023-05-18T21:22:30.207Z,17.73
2023-05-18T21:24:57.971Z,17.72
2023-05-18T21:27:25.339Z,17.72
2023-05-18T21:29:52.839Z,17.72
2023-05-18T21:32:20.332Z,17.71
2023-05-18T21:34:48.095Z,17.72
2023-05-18T21:37:15.615Z,17.71
2023-05-18T21:39:44.050Z,17.72
2023-05-18T21:42:11.351Z,17.71
2023-05-18T21:44:38.905Z,17.71
2023-05-18T21:47:06.272Z,17.70
2023-05-18T21:49:33.782Z,17.69
2023-05-18T21:52:01.043Z,17.69
2023-05-18T21:54:32.075Z,17.69
2023-05-18T21:57:00.307Z,17.68
2023-05-18T21:59:27.897Z,17.68
2023-05-18T22:01:55.407Z,17.68
2023-05-18T22:04:23.189Z,17.69
2023-05-18T22:06:53.231Z,17.68
2023-05-18T22:09:20.854Z,17.68
2023-05-18T22:11:48.247Z,17.67
2023-05-18T22:14:17.651Z,17.68
2023-05-18T22:16:45.514Z,17.66
2023-05-18T22:19:13.148Z,17.67
2023-05-18T22:21:41.805Z,17.67
2023-05-18T22:24:09.415Z,17.66
2023-05-18T22:26:37.626Z,17.68
2023-05-18T22:29:05.265Z,17.66
2023-05-18T22:31:32.687Z,17.66
2023-05-18T22:34:00.365Z,17.65
2023-05-18T22:36:29.361Z,17.67
2023-05-18T22:38:57.600Z,17.65
2023-05-18T22:41:24.934Z,17.65
2023-05-18T22:43:52.665Z,17.65
2023-05-18T22:46:20.075Z,17.65
2023-05-18T22:48:48.041Z,17.65
2023-05-18T22:51:15.684Z,17.64
2023-05-18T22:53:43.278Z,17.65
2023-05-18T22:56:10.778Z,17.64
2023-05-18T22:58:38.300Z,17.64
2023-05-18T23:01:06.099Z,17.65
2023-05-18T23:03:33.699Z,17.65
2023-05-18T23:06:03.110Z,17.65
2023-05-18T23:08:30.764Z,17.64
2023-05-18T23:10:58.433Z,17.64
2023-05-18T23:13:26.039Z,17.63
2023-05-18T23:15:56.731Z,17.63
2023-05-18T23:18:26.474Z,17.63
2023-05-18T23:20:58.436Z,17.62
2023-05-18T23:23:26.156Z,17.64
2023-05-18T23:25:53.670Z,17.63
2023-05-18T23:28:21.244Z,17.64
2023-05-18T23:30:48.531Z,17.64
2023-05-18T23:33:16.516Z,17.63
2023-05-18T23:35:46.748Z,17.64
2023-05-18T23:38:19.777Z,17.64
2023-05-18T23:40:47.340Z,17.62
2023-05-18T23:43:15.179Z,17.62
2023-05-18T23:45:42.735Z,17.62
2023-05-18T23:48:11.007Z,17.61
2023-05-18T23:50:41.302Z,17.62
2023-05-18T23:53:12.004Z,17.62
2023-05-18T23:55:41.371Z,17.62
2023-05-18T23:58:09.203Z,17.61
